Amherstburg, Canada
Current Conditions -  °F | °C
As of 8:54 AM on Monday 24 Nov 2014 (Local Time) from KONZ Reporting Station
Light Rain Light Rain  
Wind Chill: 54°   Ceiling: 6500
Heat Index: 54°   Visibility: 10mi
Dew Point: 50°   Wind: 16mph
Humidity: 88%   Direction: 210°SSW
Pressure: 29.15"   Gusts: 21mph
Location:  42.1°N, 83.11°W
Report Text: KONZ 241354Z AUTO 21014G18KT 10SM -RA SCT039 BKN065 OVC075 12/10 A2915 RMK AO2 P0004
Loading
Personal Weather Stations






























Interactive Weather Map New forecast layout! Learn more

10-Day Weather Forecast

Advertisements
Track Severe Weather on mobile